sensor_id;sensor_type;location;lat;lon;timestamp;pressure;altitude;pressure_sealevel;temperature;humidity
68075;BME280;54864;52.002;5.468;2022-08-30T00:00:53;101978.66;;;18.70;65.34
68075;BME280;54864;52.002;5.468;2022-08-30T00:02:02;101977.41;;;18.61;65.54
68075;BME280;54864;52.002;5.468;2022-08-30T00:03:04;101980.25;;;18.28;66.61
68075;BME280;54864;52.002;5.468;2022-08-30T00:04:07;101977.78;;;18.25;67.07
68075;BME280;54864;52.002;5.468;2022-08-30T00:05:08;101976.56;;;18.15;67.20
68075;BME280;54864;52.002;5.468;2022-08-30T00:06:13;101976.84;;;18.11;67.36
68075;BME280;54864;52.002;5.468;2022-08-30T00:07:15;101975.59;;;18.32;66.92
68075;BME280;54864;52.002;5.468;2022-08-30T00:08:17;101981.56;;;18.21;67.23
68075;BME280;54864;52.002;5.468;2022-08-30T00:09:19;101976.94;;;18.39;66.62
68075;BME280;54864;52.002;5.468;2022-08-30T00:10:21;101975.63;;;18.16;67.00
68075;BME280;54864;52.002;5.468;2022-08-30T00:11:25;101974.75;;;18.16;67.42
68075;BME280;54864;52.002;5.468;2022-08-30T00:12:28;101977.00;;;18.08;67.43
68075;BME280;54864;52.002;5.468;2022-08-30T00:13:31;101972.94;;;18.16;67.67
68075;BME280;54864;52.002;5.468;2022-08-30T00:14:33;101972.19;;;18.14;67.52
68075;BME280;54864;52.002;5.468;2022-08-30T00:15:33;101972.63;;;18.22;67.28
68075;BME280;54864;52.002;5.468;2022-08-30T00:16:38;101972.06;;;18.31;66.73
68075;BME280;54864;52.002;5.468;2022-08-30T00:17:40;101968.91;;;18.25;66.91
68075;BME280;54864;52.002;5.468;2022-08-30T00:18:43;101969.47;;;17.84;68.47
68075;BME280;54864;52.002;5.468;2022-08-30T00:19:44;101965.34;;;17.79;68.93
68075;BME280;54864;52.002;5.468;2022-08-30T00:20:49;101973.59;;;17.90;68.39
68075;BME280;54864;52.002;5.468;2022-08-30T00:21:51;101972.97;;;18.00;68.21
68075;BME280;54864;52.002;5.468;2022-08-30T00:22:53;101973.47;;;18.07;67.96
68075;BME280;54864;52.002;5.468;2022-08-30T00:23:53;101969.94;;;18.06;67.86
68075;BME280;54864;52.002;5.468;2022-08-30T00:24:57;101966.53;;;17.89;68.28
68075;BME280;54864;52.002;5.468;2022-08-30T00:26:00;101966.59;;;18.03;67.92
68075;BME280;54864;52.002;5.468;2022-08-30T00:27:02;101973.97;;;18.14;67.64
68075;BME280;54864;52.002;5.468;2022-08-30T00:28:03;101965.78;;;18.17;67.51
68075;BME280;54864;52.002;5.468;2022-08-30T00:29:04;101973.03;;;18.15;67.38
68075;BME280;54864;52.002;5.468;2022-08-30T00:30:08;101974.25;;;18.09;67.41
68075;BME280;54864;52.002;5.468;2022-08-30T00:31:11;101976.41;;;18.02;67.87
68075;BME280;54864;52.002;5.468;2022-08-30T00:32:12;101972.91;;;18.02;67.98
68075;BME280;54864;52.002;5.468;2022-08-30T00:33:15;101966.84;;;18.14;67.52
68075;BME280;54864;52.002;5.468;2022-08-30T00:34:16;101974.56;;;18.19;67.27
68075;BME280;54864;52.002;5.468;2022-08-30T00:35:18;101966.94;;;18.13;67.37
68075;BME280;54864;52.002;5.468;2022-08-30T00:36:19;101969.75;;;18.25;67.01
68075;BME280;54864;52.002;5.468;2022-08-30T00:37:21;101965.19;;;18.27;66.76
68075;BME280;54864;52.002;5.468;2022-08-30T00:38:22;101967.28;;;18.22;66.77
68075;BME280;54864;52.002;5.468;2022-08-30T00:39:24;101970.38;;;18.15;66.98
68075;BME280;54864;52.002;5.468;2022-08-30T00:40:27;101962.09;;;18.19;67.08
68075;BME280;54864;52.002;5.468;2022-08-30T00:41:29;101964.75;;;18.19;66.98
68075;BME280;54864;52.002;5.468;2022-08-30T00:42:30;101968.38;;;18.18;67.01
68075;BME280;54864;52.002;5.468;2022-08-30T00:43:32;101976.81;;;18.26;66.69
68075;BME280;54864;52.002;5.468;2022-08-30T00:44:35;101962.94;;;18.20;67.12
68075;BME280;54864;52.002;5.468;2022-08-30T00:45:38;101974.44;;;18.22;66.97
68075;BME280;54864;52.002;5.468;2022-08-30T00:46:38;101964.69;;;18.21;67.04
68075;BME280;54864;52.002;5.468;2022-08-30T00:47:40;101972.53;;;18.24;66.82
68075;BME280;54864;52.002;5.468;2022-08-30T00:48:44;101970.63;;;18.26;66.93
68075;BME280;54864;52.002;5.468;2022-08-30T00:49:48;101967.38;;;18.21;66.99
68075;BME280;54864;52.002;5.468;2022-08-30T00:50:53;101975.03;;;18.11;67.20
68075;BME280;54864;52.002;5.468;2022-08-30T00:51:57;101968.41;;;18.02;67.46
68075;BME280;54864;52.002;5.468;2022-08-30T00:53:00;101969.91;;;17.92;67.94
68075;BME280;54864;52.002;5.468;2022-08-30T00:54:06;101975.03;;;18.11;67.44
68075;BME280;54864;52.002;5.468;2022-08-30T00:55:08;101980.53;;;18.08;67.08
68075;BME280;54864;52.002;5.468;2022-08-30T00:56:13;101979.69;;;18.08;67.65
68075;BME280;54864;52.002;5.468;2022-08-30T00:57:14;101979.41;;;18.12;67.17
68075;BME280;54864;52.002;5.468;2022-08-30T00:58:18;101981.91;;;18.15;66.86
68075;BME280;54864;52.002;5.468;2022-08-30T00:59:22;101978.56;;;18.12;66.96
68075;BME280;54864;52.002;5.468;2022-08-30T01:00:25;101984.06;;;18.09;67.04
68075;BME280;54864;52.002;5.468;2022-08-30T01:01:26;101980.56;;;17.92;67.87
68075;BME280;54864;52.002;5.468;2022-08-30T01:02:28;101972.91;;;18.02;67.66
68075;BME280;54864;52.002;5.468;2022-08-30T01:03:30;101980.44;;;18.10;67.24
68075;BME280;54864;52.002;5.468;2022-08-30T01:04:32;101977.63;;;17.97;67.57
68075;BME280;54864;52.002;5.468;2022-08-30T01:05:35;101975.81;;;17.97;67.66
68075;BME280;54864;52.002;5.468;2022-08-30T01:06:38;101974.41;;;17.76;68.49
68075;BME280;54864;52.002;5.468;2022-08-30T01:07:40;101972.94;;;17.70;68.50
68075;BME280;54864;52.002;5.468;2022-08-30T01:08:43;101975.84;;;17.66;69.01
68075;BME280;54864;52.002;5.468;2022-08-30T01:09:45;101974.03;;;17.82;68.45
68075;BME280;54864;52.002;5.468;2022-08-30T01:10:47;101963.47;;;17.81;68.03
68075;BME280;54864;52.002;5.468;2022-08-30T01:11:51;101975.50;;;17.88;68.03
68075;BME280;54864;52.002;5.468;2022-08-30T01:12:53;101975.75;;;17.83;68.03
68075;BME280;54864;52.002;5.468;2022-08-30T01:13:54;101971.47;;;17.81;68.29
68075;BME280;54864;52.002;5.468;2022-08-30T01:14:57;101971.56;;;17.79;68.31
68075;BME280;54864;52.002;5.468;2022-08-30T01:15:58;101981.72;;;17.72;68.69
68075;BME280;54864;52.002;5.468;2022-08-30T01:17:01;101982.75;;;17.70;69.00
68075;BME280;54864;52.002;5.468;2022-08-30T01:18:03;101979.03;;;17.72;69.03
68075;BME280;54864;52.002;5.468;2022-08-30T01:19:13;101975.00;;;17.81;68.48
68075;BME280;54864;52.002;5.468;2022-08-30T01:20:23;101980.41;;;17.80;68.42
68075;BME280;54864;52.002;5.468;2022-08-30T01:21:33;101977.75;;;17.80;68.38
68075;BME280;54864;52.002;5.468;2022-08-30T01:22:43;101984.53;;;17.85;68.27
68075;BME280;54864;52.002;5.468;2022-08-30T01:23:57;101976.97;;;17.78;68.33
68075;BME280;54864;52.002;5.468;2022-08-30T01:25:00;101984.81;;;17.81;68.31
68075;BME280;54864;52.002;5.468;2022-08-30T01:26:03;101977.03;;;17.60;69.38
68075;BME280;54864;52.002;5.468;2022-08-30T01:27:06;101980.50;;;17.78;68.69
68075;BME280;54864;52.002;5.468;2022-08-30T01:28:10;101985.94;;;17.77;68.45
68075;BME280;54864;52.002;5.468;2022-08-30T01:29:18;101978.69;;;17.79;68.44
68075;BME280;54864;52.002;5.468;2022-08-30T01:30:21;101981.19;;;17.82;68.33
68075;BME280;54864;52.002;5.468;2022-08-30T01:31:23;101978.00;;;17.91;68.04
68075;BME280;54864;52.002;5.468;2022-08-30T01:32:26;101984.28;;;17.90;67.91
68075;BME280;54864;52.002;5.468;2022-08-30T01:33:28;101983.94;;;17.80;68.40
68075;BME280;54864;52.002;5.468;2022-08-30T01:34:30;101984.88;;;17.79;68.42
68075;BME280;54864;52.002;5.468;2022-08-30T01:35:34;101981.63;;;17.74;68.55
68075;BME280;54864;52.002;5.468;2022-08-30T01:36:43;101984.97;;;17.78;68.47
68075;BME280;54864;52.002;5.468;2022-08-30T01:37:46;101984.19;;;17.60;69.08
68075;BME280;54864;52.002;5.468;2022-08-30T01:38:51;101990.06;;;17.66;68.80
68075;BME280;54864;52.002;5.468;2022-08-30T01:39:53;101993.59;;;17.67;69.01
68075;BME280;54864;52.002;5.468;2022-08-30T01:40:56;101981.63;;;17.74;68.45
68075;BME280;54864;52.002;5.468;2022-08-30T01:41:57;101985.06;;;17.76;68.31
68075;BME280;54864;52.002;5.468;2022-08-30T01:42:59;101984.47;;;17.71;68.53
68075;BME280;54864;52.002;5.468;2022-08-30T01:44:06;101988.56;;;17.61;69.03
68075;BME280;54864;52.002;5.468;2022-08-30T01:45:11;101987.41;;;17.66;68.96
68075;BME280;54864;52.002;5.468;2022-08-30T01:46:14;101987.59;;;17.46;69.87
68075;BME280;54864;52.002;5.468;2022-08-30T01:47:18;101982.78;;;17.53;69.66
68075;BME280;54864;52.002;5.468;2022-08-30T01:48:20;101987.16;;;17.38;70.37
68075;BME280;54864;52.002;5.468;2022-08-30T01:49:21;101981.81;;;17.54;69.82
68075;BME280;54864;52.002;5.468;2022-08-30T01:50:23;101989.13;;;17.50;69.72
68075;BME280;54864;52.002;5.468;2022-08-30T01:51:25;101986.47;;;17.34;70.61
68075;BME280;54864;52.002;5.468;2022-08-30T01:52:28;101988.53;;;17.45;70.05
68075;BME280;54864;52.002;5.468;2022-08-30T01:53:29;101989.91;;;17.52;69.57
68075;BME280;54864;52.002;5.468;2022-08-30T01:54:34;101980.88;;;17.39;69.98
68075;BME280;54864;52.002;5.468;2022-08-30T01:55:37;101978.56;;;17.49;70.00
68075;BME280;54864;52.002;5.468;2022-08-30T01:56:39;101982.94;;;17.50;69.53
68075;BME280;54864;52.002;5.468;2022-08-30T01:57:41;101983.53;;;17.55;69.49
68075;BME280;54864;52.002;5.468;2022-08-30T01:58:43;101985.44;;;17.53;69.37
68075;BME280;54864;52.002;5.468;2022-08-30T01:59:45;101982.41;;;17.43;69.71
68075;BME280;54864;52.002;5.468;2022-08-30T02:00:49;101984.50;;;17.38;70.21
68075;BME280;54864;52.002;5.468;2022-08-30T02:01:51;101986.53;;;17.33;70.39
68075;BME280;54864;52.002;5.468;2022-08-30T02:02:52;101994.28;;;17.37;70.39
68075;BME280;54864;52.002;5.468;2022-08-30T02:03:54;101978.72;;;17.46;69.87
68075;BME280;54864;52.002;5.468;2022-08-30T02:04:56;101982.06;;;17.33;70.36
68075;BME280;54864;52.002;5.468;2022-08-30T02:06:02;101984.16;;;17.44;70.20
68075;BME280;54864;52.002;5.468;2022-08-30T02:07:04;101988.53;;;17.29;70.45
68075;BME280;54864;52.002;5.468;2022-08-30T02:08:05;101985.50;;;17.35;70.47
68075;BME280;54864;52.002;5.468;2022-08-30T02:09:07;101996.78;;;17.40;70.39
68075;BME280;54864;52.002;5.468;2022-08-30T02:10:10;101995.50;;;17.48;70.01
68075;BME280;54864;52.002;5.468;2022-08-30T02:11:14;101992.75;;;17.49;69.68
68075;BME280;54864;52.002;5.468;2022-08-30T02:12:15;101992.66;;;17.35;70.62
68075;BME280;54864;52.002;5.468;2022-08-30T02:13:17;101983.53;;;17.23;70.89
68075;BME280;54864;52.002;5.468;2022-08-30T02:14:18;101981.56;;;17.27;70.84
68075;BME280;54864;52.002;5.468;2022-08-30T02:15:20;101986.63;;;17.31;70.67
68075;BME280;54864;52.002;5.468;2022-08-30T02:16:22;101982.16;;;17.32;70.66
68075;BME280;54864;52.002;5.468;2022-08-30T02:17:24;101983.44;;;17.25;70.87
68075;BME280;54864;52.002;5.468;2022-08-30T02:18:26;101981.09;;;17.19;71.05
68075;BME280;54864;52.002;5.468;2022-08-30T02:19:28;101983.88;;;17.33;70.66
68075;BME280;54864;52.002;5.468;2022-08-30T02:20:29;101987.94;;;17.40;70.37
68075;BME280;54864;52.002;5.468;2022-08-30T02:21:31;101987.84;;;17.41;70.19
68075;BME280;54864;52.002;5.468;2022-08-30T02:22:32;101982.84;;;17.35;70.29
68075;BME280;54864;52.002;5.468;2022-08-30T02:23:34;101983.19;;;17.29;70.82
68075;BME280;54864;52.002;5.468;2022-08-30T02:24:35;101982.69;;;17.38;70.39
68075;BME280;54864;52.002;5.468;2022-08-30T02:25:38;101977.59;;;17.34;70.57
68075;BME280;54864;52.002;5.468;2022-08-30T02:26:40;101980.88;;;17.39;70.43
68075;BME280;54864;52.002;5.468;2022-08-30T02:27:41;101981.72;;;17.39;70.52
68075;BME280;54864;52.002;5.468;2022-08-30T02:28:43;101977.34;;;17.38;70.37
68075;BME280;54864;52.002;5.468;2022-08-30T02:29:45;101978.91;;;17.42;70.47
68075;BME280;54864;52.002;5.468;2022-08-30T02:30:47;101980.28;;;17.50;70.23
68075;BME280;54864;52.002;5.468;2022-08-30T02:31:50;101977.09;;;17.27;70.55
68075;BME280;54864;52.002;5.468;2022-08-30T02:32:51;101977.78;;;17.31;70.68
68075;BME280;54864;52.002;5.468;2022-08-30T02:33:53;101978.38;;;17.36;70.42
68075;BME280;54864;52.002;5.468;2022-08-30T02:34:54;101980.34;;;17.32;70.87
68075;BME280;54864;52.002;5.468;2022-08-30T02:35:56;101980.34;;;17.32;70.60
68075;BME280;54864;52.002;5.468;2022-08-30T02:36:57;101979.16;;;17.38;70.56
68075;BME280;54864;52.002;5.468;2022-08-30T02:38:00;101981.28;;;17.16;71.14
68075;BME280;54864;52.002;5.468;2022-08-30T02:39:01;101982.84;;;17.20;71.35
68075;BME280;54864;52.002;5.468;2022-08-30T02:40:03;101986.03;;;17.26;71.14
68075;BME280;54864;52.002;5.468;2022-08-30T02:41:07;101979.06;;;17.24;71.10
68075;BME280;54864;52.002;5.468;2022-08-30T02:42:09;101977.59;;;17.34;70.91
68075;BME280;54864;52.002;5.468;2022-08-30T02:43:11;101974.50;;;17.26;71.05
68075;BME280;54864;52.002;5.468;2022-08-30T02:44:11;101976.22;;;17.27;71.31
68075;BME280;54864;52.002;5.468;2022-08-30T02:45:14;101968.22;;;17.27;71.05
68075;BME280;54864;52.002;5.468;2022-08-30T02:46:15;101978.03;;;17.26;71.38
68075;BME280;54864;52.002;5.468;2022-08-30T02:47:17;101980.59;;;17.28;71.10
68075;BME280;54864;52.002;5.468;2022-08-30T02:48:18;101970.19;;;17.23;70.80
68075;BME280;54864;52.002;5.468;2022-08-30T02:49:20;101975.41;;;17.09;71.61
68075;BME280;54864;52.002;5.468;2022-08-30T02:50:20;101977.84;;;17.29;70.95
68075;BME280;54864;52.002;5.468;2022-08-30T02:51:23;101969.19;;;17.41;70.51
68075;BME280;54864;52.002;5.468;2022-08-30T02:52:24;101965.66;;;17.25;70.80
68075;BME280;54864;52.002;5.468;2022-08-30T02:53:25;101970.50;;;17.01;71.83
68075;BME280;54864;52.002;5.468;2022-08-30T02:54:26;101965.78;;;17.06;71.93
68075;BME280;54864;52.002;5.468;2022-08-30T02:55:28;101961.69;;;17.17;71.27
68075;BME280;54864;52.002;5.468;2022-08-30T02:56:31;101965.03;;;17.20;71.19
68075;BME280;54864;52.002;5.468;2022-08-30T02:57:33;101957.97;;;17.19;71.24
68075;BME280;54864;52.002;5.468;2022-08-30T02:58:34;101953.34;;;17.23;70.97
68075;BME280;54864;52.002;5.468;2022-08-30T02:59:35;101950.75;;;17.21;71.02
68075;BME280;54864;52.002;5.468;2022-08-30T03:00:41;101957.47;;;17.28;70.73
68075;BME280;54864;52.002;5.468;2022-08-30T03:01:43;101959.53;;;17.23;70.95
68075;BME280;54864;52.002;5.468;2022-08-30T03:02:44;101957.47;;;17.13;71.65
68075;BME280;54864;52.002;5.468;2022-08-30T03:03:46;101952.22;;;17.11;71.62
68075;BME280;54864;52.002;5.468;2022-08-30T03:04:47;101949.66;;;17.25;71.11
68075;BME280;54864;52.002;5.468;2022-08-30T03:05:49;101953.09;;;17.27;70.91
68075;BME280;54864;52.002;5.468;2022-08-30T03:06:50;101952.47;;;17.22;70.84
68075;BME280;54864;52.002;5.468;2022-08-30T03:07:51;101953.94;;;17.12;71.40
68075;BME280;54864;52.002;5.468;2022-08-30T03:08:52;101953.56;;;17.02;71.77
68075;BME280;54864;52.002;5.468;2022-08-30T03:09:55;101945.59;;;17.18;71.49
68075;BME280;54864;52.002;5.468;2022-08-30T03:10:55;101952.75;;;17.18;71.17
68075;BME280;54864;52.002;5.468;2022-08-30T03:11:58;101946.69;;;16.98;72.18
68075;BME280;54864;52.002;5.468;2022-08-30T03:12:59;101948.41;;;16.99;72.04
68075;BME280;54864;52.002;5.468;2022-08-30T03:14:01;101949.59;;;16.94;72.45
68075;BME280;54864;52.002;5.468;2022-08-30T03:15:03;101949.19;;;17.01;72.15
68075;BME280;54864;52.002;5.468;2022-08-30T03:16:06;101940.94;;;17.06;71.76
68075;BME280;54864;52.002;5.468;2022-08-30T03:17:08;101945.50;;;17.04;71.84
68075;BME280;54864;52.002;5.468;2022-08-30T03:18:10;101946.88;;;16.95;72.35
68075;BME280;54864;52.002;5.468;2022-08-30T03:19:11;101954.59;;;17.00;72.15
68075;BME280;54864;52.002;5.468;2022-08-30T03:20:13;101954.19;;;17.07;71.85
68075;BME280;54864;52.002;5.468;2022-08-30T03:21:14;101954.28;;;16.89;72.12
68075;BME280;54864;52.002;5.468;2022-08-30T03:22:17;101951.16;;;16.98;72.24
68075;BME280;54864;52.002;5.468;2022-08-30T03:23:18;101954.44;;;17.03;71.97
68075;BME280;54864;52.002;5.468;2022-08-30T03:24:20;101949.19;;;17.01;71.83
68075;BME280;54864;52.002;5.468;2022-08-30T03:25:21;101955.47;;;17.00;71.97
68075;BME280;54864;52.002;5.468;2022-08-30T03:26:23;101954.09;;;17.09;71.48
68075;BME280;54864;52.002;5.468;2022-08-30T03:27:25;101953.06;;;16.96;72.25
68075;BME280;54864;52.002;5.468;2022-08-30T03:28:27;101949.34;;;16.98;72.23
68075;BME280;54864;52.002;5.468;2022-08-30T03:29:28;101952.38;;;17.08;71.86
68075;BME280;54864;52.002;5.468;2022-08-30T03:30:31;101954.09;;;17.09;71.80
68075;BME280;54864;52.002;5.468;2022-08-30T03:31:33;101948.84;;;17.07;71.64
68075;BME280;54864;52.002;5.468;2022-08-30T03:32:36;101959.25;;;17.12;71.56
68075;BME280;54864;52.002;5.468;2022-08-30T03:33:37;101958.56;;;17.08;71.65
68075;BME280;54864;52.002;5.468;2022-08-30T03:34:40;101956.34;;;17.17;71.26
68075;BME280;54864;52.002;5.468;2022-08-30T03:35:41;101955.63;;;16.97;72.23
68075;BME280;54864;52.002;5.468;2022-08-30T03:36:43;101951.59;;;17.06;72.02
68075;BME280;54864;52.002;5.468;2022-08-30T03:37:45;101955.63;;;16.97;72.16
68075;BME280;54864;52.002;5.468;2022-08-30T03:38:46;101957.34;;;16.98;72.15
68075;BME280;54864;52.002;5.468;2022-08-30T03:39:48;101955.91;;;17.08;72.00
68075;BME280;54864;52.002;5.468;2022-08-30T03:40:49;101953.16;;;17.10;71.88
68075;BME280;54864;52.002;5.468;2022-08-30T03:41:51;101946.03;;;17.10;71.41
68075;BME280;54864;52.002;5.468;2022-08-30T03:42:54;101954.72;;;17.14;71.46
68075;BME280;54864;52.002;5.468;2022-08-30T03:43:56;101947.41;;;17.18;71.15
68075;BME280;54864;52.002;5.468;2022-08-30T03:44:56;101945.34;;;17.23;70.94
68075;BME280;54864;52.002;5.468;2022-08-30T03:45:58;101947.25;;;16.88;72.15
68075;BME280;54864;52.002;5.468;2022-08-30T03:46:59;101940.78;;;16.59;73.32
68075;BME280;54864;52.002;5.468;2022-08-30T03:48:02;101944.28;;;16.76;72.85
68075;BME280;54864;52.002;5.468;2022-08-30T03:49:03;101943.59;;;16.73;72.73
68075;BME280;54864;52.002;5.468;2022-08-30T03:50:06;101948.06;;;16.55;73.55
68075;BME280;54864;52.002;5.468;2022-08-30T03:51:08;101942.75;;;16.38;74.39
68075;BME280;54864;52.002;5.468;2022-08-30T03:52:10;101944.25;;;16.43;74.26
68075;BME280;54864;52.002;5.468;2022-08-30T03:53:10;101948.84;;;16.40;74.32
68075;BME280;54864;52.002;5.468;2022-08-30T03:54:12;101942.72;;;16.55;73.87
68075;BME280;54864;52.002;5.468;2022-08-30T03:55:13;101944.94;;;16.47;74.21
68075;BME280;54864;52.002;5.468;2022-08-30T03:56:16;101940.22;;;16.52;73.88
68075;BME280;54864;52.002;5.468;2022-08-30T03:57:18;101949.31;;;16.48;74.11
68075;BME280;54864;52.002;5.468;2022-08-30T03:58:21;101942.56;;;16.24;74.88
68075;BME280;54864;52.002;5.468;2022-08-30T03:59:23;101946.28;;;16.38;74.72
68075;BME280;54864;52.002;5.468;2022-08-30T04:00:25;101945.09;;;16.44;74.10
68075;BME280;54864;52.002;5.468;2022-08-30T04:01:25;101944.84;;;16.48;73.85
68075;BME280;54864;52.002;5.468;2022-08-30T04:02:27;101951.59;;;16.56;73.74
68075;BME280;54864;52.002;5.468;2022-08-30T04:03:28;101952.91;;;16.47;73.91
68075;BME280;54864;52.002;5.468;2022-08-30T04:04:31;101950.56;;;16.41;74.14
68075;BME280;54864;52.002;5.468;2022-08-30T04:05:31;101947.53;;;16.48;74.27
68075;BME280;54864;52.002;5.468;2022-08-30T04:06:33;101942.34;;;16.63;73.50
68075;BME280;54864;52.002;5.468;2022-08-30T04:07:34;101946.78;;;16.62;73.44
68075;BME280;54864;52.002;5.468;2022-08-30T04:08:36;101947.53;;;16.48;73.74
68075;BME280;54864;52.002;5.468;2022-08-30T04:09:38;101953.63;;;16.51;73.94
68075;BME280;54864;52.002;5.468;2022-08-30T04:10:40;101956.03;;;16.55;73.61
68075;BME280;54864;52.002;5.468;2022-08-30T04:11:41;101946.72;;;16.64;73.33
68075;BME280;54864;52.002;5.468;2022-08-30T04:12:43;101944.44;;;16.56;73.39
68075;BME280;54864;52.002;5.468;2022-08-30T04:13:45;101950.97;;;16.51;73.48
68075;BME280;54864;52.002;5.468;2022-08-30T04:14:48;101943.06;;;16.49;73.40
68075;BME280;54864;52.002;5.468;2022-08-30T04:15:49;101945.09;;;16.44;74.00
68075;BME280;54864;52.002;5.468;2022-08-30T04:16:51;101953.88;;;16.46;73.95
68075;BME280;54864;52.002;5.468;2022-08-30T04:17:52;101947.22;;;16.37;74.03
68075;BME280;54864;52.002;5.468;2022-08-30T04:18:54;101947.75;;;16.44;74.02
68075;BME280;54864;52.002;5.468;2022-08-30T04:19:57;101947.34;;;16.52;73.61
68075;BME280;54864;52.002;5.468;2022-08-30T04:20:59;101951.75;;;16.53;73.53
68075;BME280;54864;52.002;5.468;2022-08-30T04:21:59;101946.41;;;16.53;73.29
68075;BME280;54864;52.002;5.468;2022-08-30T04:23:01;101947.84;;;16.42;73.60
68075;BME280;54864;52.002;5.468;2022-08-30T04:24:02;101949.00;;;16.54;73.51
68075;BME280;54864;52.002;5.468;2022-08-30T04:25:06;101944.91;;;16.64;72.95
68075;BME280;54864;52.002;5.468;2022-08-30T04:26:08;101948.78;;;16.41;73.53
68075;BME280;54864;52.002;5.468;2022-08-30T04:27:10;101952.69;;;16.34;73.95
68075;BME280;54864;52.002;5.468;2022-08-30T04:28:11;101950.19;;;16.31;74.29
68075;BME280;54864;52.002;5.468;2022-08-30T04:29:15;101945.88;;;16.46;73.68
68075;BME280;54864;52.002;5.468;2022-08-30T04:30:18;101949.47;;;16.45;73.50
68075;BME280;54864;52.002;5.468;2022-08-30T04:31:20;101951.44;;;16.41;73.57
68075;BME280;54864;52.002;5.468;2022-08-30T04:32:22;101955.97;;;16.39;73.71
68075;BME280;54864;52.002;5.468;2022-08-30T04:33:26;101955.13;;;16.39;73.85
68075;BME280;54864;52.002;5.468;2022-08-30T04:34:28;101953.31;;;16.39;73.56
68075;BME280;54864;52.002;5.468;2022-08-30T04:35:28;101955.69;;;16.28;74.39
68075;BME280;54864;52.002;5.468;2022-08-30T04:36:30;101959.50;;;16.40;73.67
68075;BME280;54864;52.002;5.468;2022-08-30T04:37:31;101951.28;;;16.44;73.47
68075;BME280;54864;52.002;5.468;2022-08-30T04:38:34;101954.72;;;16.46;73.46
68075;BME280;54864;52.002;5.468;2022-08-30T04:39:36;101964.38;;;16.32;73.78
68075;BME280;54864;52.002;5.468;2022-08-30T04:40:40;101964.91;;;16.38;73.79
68075;BME280;54864;52.002;5.468;2022-08-30T04:41:41;101960.53;;;16.37;73.74
68075;BME280;54864;52.002;5.468;2022-08-30T04:42:43;101962.22;;;16.21;74.37
68075;BME280;54864;52.002;5.468;2022-08-30T04:43:45;101966.72;;;16.38;73.95
68075;BME280;54864;52.002;5.468;2022-08-30T04:44:49;101963.72;;;16.44;73.41
68075;BME280;54864;52.002;5.468;2022-08-30T04:45:50;101971.16;;;16.37;73.62
68075;BME280;54864;52.002;5.468;2022-08-30T04:46:52;101970.78;;;16.28;73.83
68075;BME280;54864;52.002;5.468;2022-08-30T04:47:53;101975.09;;;16.30;73.95
68075;BME280;54864;52.002;5.468;2022-08-30T04:48:55;101980.09;;;16.36;73.58
68075;BME280;54864;52.002;5.468;2022-08-30T04:49:56;101974.84;;;16.35;73.48
68075;BME280;54864;52.002;5.468;2022-08-30T04:50:58;101970.06;;;16.41;73.50
68075;BME280;54864;52.002;5.468;2022-08-30T04:51:59;101974.13;;;16.48;73.04
68075;BME280;54864;52.002;5.468;2022-08-30T04:53:00;101969.59;;;16.51;72.69
68075;BME280;54864;52.002;5.468;2022-08-30T04:54:01;101967.50;;;16.40;72.85
68075;BME280;54864;52.002;5.468;2022-08-30T04:55:03;101974.13;;;16.48;72.97
68075;BME280;54864;52.002;5.468;2022-08-30T04:56:07;101976.19;;;16.43;72.98
68075;BME280;54864;52.002;5.468;2022-08-30T04:57:09;101978.38;;;16.35;73.30
68075;BME280;54864;52.002;5.468;2022-08-30T04:58:11;101978.44;;;16.34;73.59
68075;BME280;54864;52.002;5.468;2022-08-30T04:59:12;101974.69;;;16.38;73.26
68075;BME280;54864;52.002;5.468;2022-08-30T05:00:15;101979.53;;;16.47;73.09
68075;BME280;54864;52.002;5.468;2022-08-30T05:01:22;101982.75;;;16.54;72.54
68075;BME280;54864;52.002;5.468;2022-08-30T05:02:23;101984.31;;;16.58;72.39
68075;BME280;54864;52.002;5.468;2022-08-30T05:03:25;101988.88;;;16.38;73.14
68075;BME280;54864;52.002;5.468;2022-08-30T05:04:26;101978.88;;;16.25;73.58
68075;BME280;54864;52.002;5.468;2022-08-30T05:05:28;101981.75;;;16.39;73.15
68075;BME280;54864;52.002;5.468;2022-08-30T05:06:41;101985.03;;;16.27;73.48
68075;BME280;54864;52.002;5.468;2022-08-30T05:07:41;101979.81;;;16.06;74.26
68075;BME280;54864;52.002;5.468;2022-08-30T05:08:43;101978.34;;;16.18;74.24
68075;BME280;54864;52.002;5.468;2022-08-30T05:09:44;101986.66;;;16.29;73.89
68075;BME280;54864;52.002;5.468;2022-08-30T05:10:48;101985.56;;;16.33;73.28
68075;BME280;54864;52.002;5.468;2022-08-30T05:11:50;101985.31;;;16.21;73.78
68075;BME280;54864;52.002;5.468;2022-08-30T05:12:51;101983.50;;;16.21;74.05
68075;BME280;54864;52.002;5.468;2022-08-30T05:13:53;101985.38;;;16.19;73.95
68075;BME280;54864;52.002;5.468;2022-08-30T05:14:55;101988.06;;;16.36;73.63
68075;BME280;54864;52.002;5.468;2022-08-30T05:15:59;101994.00;;;16.24;73.83
68075;BME280;54864;52.002;5.468;2022-08-30T05:17:01;101999.69;;;16.16;74.00
68075;BME280;54864;52.002;5.468;2022-08-30T05:18:02;102001.97;;;16.24;73.73
68075;BME280;54864;52.002;5.468;2022-08-30T05:19:04;101995.91;;;16.39;73.19
68075;BME280;54864;52.002;5.468;2022-08-30T05:20:08;101995.00;;;16.22;73.82
68075;BME280;54864;52.002;5.468;2022-08-30T05:21:13;101992.78;;;16.31;73.61
68075;BME280;54864;52.002;5.468;2022-08-30T05:22:14;101991.53;;;16.38;73.14
68075;BME280;54864;52.002;5.468;2022-08-30T05:23:16;101994.97;;;16.40;72.96
68075;BME280;54864;52.002;5.468;2022-08-30T05:24:20;101997.69;;;16.56;72.44
68075;BME280;54864;52.002;5.468;2022-08-30T05:25:23;101994.34;;;16.53;72.31
68075;BME280;54864;52.002;5.468;2022-08-30T05:26:28;101998.72;;;16.36;73.05